createdAt,value
2023-03-27T00:00:00.776Z,5.1
2023-03-27T00:01:00.833Z,5.1
2023-03-27T00:02:00.872Z,5.1
2023-03-27T00:03:00.927Z,5.1
2023-03-27T00:04:00.844Z,5.1
2023-03-27T00:05:00.767Z,5.1
2023-03-27T00:06:00.811Z,5.1
2023-03-27T00:07:00.793Z,5.1
2023-03-27T00:08:00.723Z,5.1
2023-03-27T00:09:00.648Z,5.1
2023-03-27T00:10:00.874Z,5.1
2023-03-27T00:11:00.700Z,5.1
2023-03-27T00:12:00.865Z,5.1
2023-03-27T00:13:00.809Z,5.1
2023-03-27T00:14:00.736Z,5.1
2023-03-27T00:15:00.749Z,5.1
2023-03-27T00:16:00.764Z,5.1
2023-03-27T00:17:00.826Z,5.1
2023-03-27T00:18:00.718Z,5.1
2023-03-27T00:19:00.710Z,5.1
2023-03-27T00:20:00.775Z,5.1
2023-03-27T00:21:00.651Z,5.1
2023-03-27T00:22:00.823Z,5.1
2023-03-27T00:23:00.654Z,5.1
2023-03-27T00:24:00.657Z,5.1
2023-03-27T00:25:00.696Z,5.1
2023-03-27T00:26:00.663Z,5.1
2023-03-27T00:27:00.685Z,5.1
2023-03-27T00:28:00.680Z,5.1
2023-03-27T00:29:00.722Z,5.1
2023-03-27T00:30:00.683Z,5.2
2023-03-27T00:31:00.778Z,5.1
2023-03-27T00:32:00.699Z,5.1
2023-03-27T00:33:00.689Z,5.1
2023-03-27T00:34:00.669Z,5.2
2023-03-27T00:35:00.680Z,5.2
2023-03-27T00:36:00.767Z,5.2
2023-03-27T00:37:00.677Z,5.2
2023-03-27T00:38:00.620Z,5.2
2023-03-27T00:39:00.604Z,5.2
2023-03-27T00:40:00.620Z,5.2
2023-03-27T00:41:00.828Z,5.2
2023-03-27T00:42:00.532Z,5.1
2023-03-27T00:43:00.513Z,5.1
2023-03-27T00:44:00.454Z,5.1
2023-03-27T00:45:00.436Z,5.1
2023-03-27T00:46:00.454Z,5.1
2023-03-27T00:47:00.419Z,5.1
2023-03-27T00:48:00.392Z,5.1
2023-03-27T00:49:00.347Z,5.1
2023-03-27T00:50:00.371Z,5.1
2023-03-27T00:51:00.323Z,5.1
2023-03-27T00:52:00.338Z,5.1
2023-03-27T00:53:00.326Z,5.1
2023-03-27T00:54:00.337Z,5.1
2023-03-27T00:55:00.392Z,5.1
2023-03-27T00:56:00.354Z,5.1
2023-03-27T00:57:00.385Z,5.1
2023-03-27T00:58:00.381Z,5.1
2023-03-27T00:59:00.342Z,5.1
2023-03-27T01:00:00.358Z,5.1
2023-03-27T01:01:00.414Z,5.1
2023-03-27T01:02:00.383Z,5.1
2023-03-27T01:03:01.085Z,5.2
2023-03-27T01:04:00.392Z,5.2
2023-03-27T01:05:00.365Z,5.2
2023-03-27T01:06:00.369Z,5.2
2023-03-27T01:07:00.407Z,5.2
2023-03-27T01:08:01.962Z,5.2
2023-03-27T01:09:00.347Z,5.2
2023-03-27T01:10:00.343Z,5.2
2023-03-27T01:11:00.344Z,5.2
2023-03-27T01:12:00.352Z,5.2
2023-03-27T01:13:00.361Z,5.2
2023-03-27T01:14:00.357Z,5.2
2023-03-27T01:15:00.361Z,5.2
2023-03-27T01:16:00.377Z,5.2
2023-03-27T01:17:00.384Z,5.2
2023-03-27T01:18:00.400Z,5.2
2023-03-27T01:19:00.359Z,5.3
2023-03-27T01:20:00.338Z,5.3
2023-03-27T01:21:00.383Z,5.3
2023-03-27T01:22:00.362Z,5.2
2023-03-27T01:23:00.354Z,5.2
2023-03-27T01:24:00.884Z,5.2
2023-03-27T01:25:00.366Z,5.2
2023-03-27T01:26:00.338Z,5.3
2023-03-27T01:27:00.354Z,5.3
2023-03-27T01:28:00.341Z,5.3
2023-03-27T01:29:00.340Z,5.3
2023-03-27T01:30:00.385Z,5.3
2023-03-27T01:31:00.381Z,5.3
2023-03-27T01:32:00.373Z,5.3
2023-03-27T01:33:00.416Z,5.2
2023-03-27T01:34:00.361Z,5.2
2023-03-27T01:35:00.999Z,5.2
2023-03-27T01:36:00.394Z,5.2
2023-03-27T01:37:00.368Z,5.2
2023-03-27T01:38:00.353Z,5.2
2023-03-27T01:39:00.378Z,5.2
2023-03-27T01:40:00.378Z,5.2
2023-03-27T01:41:00.353Z,5.2
2023-03-27T01:42:00.374Z,5.2
2023-03-27T01:43:00.359Z,5.2
2023-03-27T01:44:00.355Z,5.2
2023-03-27T01:45:00.384Z,5.2
2023-03-27T01:46:00.383Z,5.2
2023-03-27T01:47:00.425Z,5.2
2023-03-27T01:48:00.457Z,5.2
2023-03-27T01:49:00.371Z,5.2
2023-03-27T01:50:00.365Z,5.2
2023-03-27T01:51:00.364Z,5.2
2023-03-27T01:52:00.384Z,5.2
2023-03-27T01:53:00.384Z,5.2
2023-03-27T01:54:00.366Z,5.2
2023-03-27T01:55:00.385Z,5.2
2023-03-27T01:56:00.406Z,5.2
2023-03-27T01:57:00.401Z,5.2
2023-03-27T01:58:00.434Z,5.2
2023-03-27T01:59:00.385Z,5.2
2023-03-27T02:00:17.568Z,5.2
2023-03-27T02:01:00.797Z,5.2
2023-03-27T02:02:00.790Z,5.2
2023-03-27T02:03:00.828Z,5.2
2023-03-27T02:04:00.760Z,5.2
2023-03-27T02:05:00.776Z,5.2
2023-03-27T02:06:00.782Z,5.2
2023-03-27T02:07:00.772Z,5.2
2023-03-27T02:08:00.787Z,5.2
2023-03-27T02:09:00.774Z,5.2
2023-03-27T02:10:00.804Z,5.2
2023-03-27T02:11:00.782Z,5.2
2023-03-27T02:12:00.802Z,5.2
2023-03-27T02:13:00.785Z,5.2
2023-03-27T02:14:00.773Z,5.2
2023-03-27T02:15:24.035Z,5.2
2023-03-27T02:16:00.814Z,5.2
2023-03-27T02:17:00.796Z,5.2
2023-03-27T02:18:00.830Z,5.2
2023-03-27T02:19:00.808Z,5.2
2023-03-27T02:20:00.781Z,5.2
2023-03-27T02:21:00.796Z,5.2
2023-03-27T02:22:00.782Z,5.2
2023-03-27T02:23:00.795Z,5.2
2023-03-27T02:24:00.780Z,5.2
2023-03-27T02:25:00.802Z,5.2
2023-03-27T02:26:00.804Z,5.2
2023-03-27T02:27:00.785Z,5.2
2023-03-27T02:28:00.804Z,5.2
2023-03-27T02:29:00.791Z,5.2
2023-03-27T02:30:00.818Z,5.2
2023-03-27T02:31:06.424Z,5.2
2023-03-27T02:32:00.850Z,5.2
2023-03-27T02:33:00.840Z,5.2
2023-03-27T02:34:00.795Z,5.2
2023-03-27T02:35:00.794Z,5.2
2023-03-27T02:36:00.824Z,5.2
2023-03-27T02:37:00.794Z,5.2
2023-03-27T02:38:00.816Z,5.2
2023-03-27T02:39:00.797Z,5.2
2023-03-27T02:40:00.866Z,5.2
2023-03-27T02:41:00.821Z,5.2
2023-03-27T02:42:00.871Z,5.2
2023-03-27T02:43:00.819Z,5.2
2023-03-27T02:44:00.798Z,5.2
2023-03-27T02:45:00.798Z,5.2
2023-03-27T02:46:00.849Z,5.2
2023-03-27T02:47:00.830Z,5.2
2023-03-27T02:48:00.856Z,5.2
2023-03-27T02:49:00.810Z,5.2
2023-03-27T02:50:00.846Z,5.2
2023-03-27T02:51:00.831Z,5.2
2023-03-27T02:52:00.817Z,5.2
2023-03-27T02:53:00.839Z,5.2
2023-03-27T02:54:00.860Z,5.2
2023-03-27T02:55:00.858Z,5.2
2023-03-27T02:56:00.820Z,5.2
2023-03-27T02:57:00.886Z,5.2
2023-03-27T02:58:00.843Z,5.1
2023-03-27T02:59:00.822Z,5.1
2023-03-27T03:00:00.861Z,5.1
2023-03-27T03:01:00.902Z,5.1
2023-03-27T03:02:00.846Z,5.1
2023-03-27T03:03:00.924Z,5.1
2023-03-27T03:04:00.832Z,5.1
2023-03-27T03:05:00.837Z,5.1
2023-03-27T03:06:00.829Z,5.1
2023-03-27T03:07:00.859Z,5.1
2023-03-27T03:08:00.869Z,5.1
2023-03-27T03:09:00.856Z,5.1
2023-03-27T03:10:00.878Z,5.1
2023-03-27T03:11:00.863Z,5.1
2023-03-27T03:12:00.844Z,5.1
2023-03-27T03:13:00.874Z,5.1
2023-03-27T03:14:00.841Z,5.1
2023-03-27T03:15:00.874Z,5.1
2023-03-27T03:16:00.873Z,5.1
2023-03-27T03:17:00.919Z,5.1
2023-03-27T03:18:00.908Z,5.1
2023-03-27T03:19:00.880Z,5.1
2023-03-27T03:20:00.900Z,5
2023-03-27T03:21:00.868Z,5
2023-03-27T03:22:00.855Z,4.9
2023-03-27T03:23:00.868Z,4.9
2023-03-27T03:24:00.864Z,4.9
2023-03-27T03:25:00.858Z,4.9
2023-03-27T03:26:00.876Z,4.9
2023-03-27T03:27:01.038Z,4.9
2023-03-27T03:28:00.943Z,4.9
2023-03-27T03:29:01.724Z,4.9
2023-03-27T03:30:01.065Z,4.9
2023-03-27T03:31:01.059Z,4.9
2023-03-27T03:32:00.888Z,4.9
2023-03-27T03:33:01.008Z,4.9
2023-03-27T03:34:01.004Z,4.9
2023-03-27T03:35:01.077Z,4.9
2023-03-27T03:36:00.985Z,4.9
2023-03-27T03:37:01.019Z,4.9
2023-03-27T03:38:01.040Z,4.9
2023-03-27T03:39:01.005Z,4.9
2023-03-27T03:40:00.977Z,4.9
2023-03-27T03:41:00.964Z,4.9
2023-03-27T03:42:01.057Z,4.9
2023-03-27T03:43:01.008Z,4.9
2023-03-27T03:44:00.953Z,4.9
2023-03-27T03:45:00.886Z,4.9
2023-03-27T03:46:00.914Z,4.9
2023-03-27T03:47:01.022Z,4.9
2023-03-27T03:48:00.972Z,4.9
2023-03-27T03:49:00.961Z,4.9
2023-03-27T03:50:00.917Z,4.9
2023-03-27T03:51:00.902Z,4.9
2023-03-27T03:52:03.619Z,4.9
2023-03-27T03:53:00.902Z,4.9
2023-03-27T03:54:00.883Z,4.9
2023-03-27T03:55:00.889Z,4.9
2023-03-27T03:56:00.880Z,4.9
2023-03-27T03:57:01.118Z,4.9
2023-03-27T03:58:00.910Z,4.9
2023-03-27T03:59:00.903Z,4.9
2023-03-27T04:00:00.908Z,4.9
2023-03-27T04:01:00.909Z,4.9
2023-03-27T04:02:00.918Z,4.9
2023-03-27T04:03:00.984Z,4.9
2023-03-27T04:04:00.925Z,4.8
2023-03-27T04:05:00.922Z,4.9
2023-03-27T04:06:00.892Z,4.8
2023-03-27T04:07:00.907Z,4.8
2023-03-27T04:08:00.937Z,4.8
2023-03-27T04:09:00.894Z,4.8
2023-03-27T04:10:00.960Z,4.8
2023-03-27T04:11:00.906Z,4.8
2023-03-27T04:12:00.893Z,4.8
2023-03-27T04:13:01.002Z,4.8
2023-03-27T04:14:00.928Z,4.8
2023-03-27T04:15:00.934Z,4.8
2023-03-27T04:16:00.954Z,4.8
2023-03-27T04:17:00.915Z,4.8
2023-03-27T04:18:01.036Z,4.8
2023-03-27T04:19:00.918Z,4.8
2023-03-27T04:20:00.906Z,4.7
2023-03-27T04:21:00.916Z,4.7
2023-03-27T04:22:00.914Z,4.7
2023-03-27T04:23:00.924Z,4.7
2023-03-27T04:24:00.896Z,4.7
2023-03-27T04:25:00.926Z,4.7
2023-03-27T04:26:01.054Z,4.7
2023-03-27T04:27:00.904Z,4.7
2023-03-27T04:28:00.945Z,4.7
2023-03-27T04:29:00.910Z,4.7
2023-03-27T04:30:00.934Z,4.7
2023-03-27T04:31:00.981Z,4.7
2023-03-27T04:32:00.958Z,4.7
2023-03-27T04:33:00.947Z,4.7
2023-03-27T04:34:00.923Z,4.7
2023-03-27T04:35:00.931Z,4.6
2023-03-27T04:36:06.341Z,4.6
2023-03-27T04:37:00.936Z,4.6
2023-03-27T04:38:00.953Z,4.6
2023-03-27T04:39:00.931Z,4.6
2023-03-27T04:40:00.934Z,4.6
2023-03-27T04:41:00.962Z,4.6
2023-03-27T04:42:00.935Z,4.6
2023-03-27T04:43:00.955Z,4.6
2023-03-27T04:44:00.935Z,4.6
2023-03-27T04:45:00.957Z,4.5
2023-03-27T04:46:00.965Z,4.5
2023-03-27T04:47:00.977Z,4.5
2023-03-27T04:48:00.970Z,4.5
2023-03-27T04:49:00.956Z,4.5
2023-03-27T04:50:01.015Z,4.5
2023-03-27T04:51:00.959Z,4.5
2023-03-27T04:52:00.968Z,4.4
2023-03-27T04:53:00.938Z,4.4
2023-03-27T04:54:00.937Z,4.5
2023-03-27T04:55:00.978Z,4.5
2023-03-27T04:56:00.974Z,4.5
2023-03-27T04:57:01.055Z,4.4
2023-03-27T04:58:00.972Z,4.4
2023-03-27T04:59:00.951Z,4.4
2023-03-27T05:00:00.983Z,4.4
2023-03-27T05:01:01.239Z,4.4
2023-03-27T05:02:00.950Z,4.4
2023-03-27T05:03:01.030Z,4.4
2023-03-27T05:04:00.974Z,4.4
2023-03-27T05:05:00.945Z,4.4
2023-03-27T05:06:00.965Z,4.4
2023-03-27T05:07:00.968Z,4.4
2023-03-27T05:08:00.953Z,4.4
2023-03-27T05:09:00.954Z,4.4
2023-03-27T05:10:00.976Z,4.3
2023-03-27T05:11:00.968Z,4.3
2023-03-27T05:12:00.949Z,4.2
2023-03-27T05:13:00.993Z,4.2
2023-03-27T05:14:00.962Z,4.2
2023-03-27T05:15:00.983Z,4.2
2023-03-27T05:16:01.108Z,4.2
2023-03-27T05:17:00.962Z,4.2
2023-03-27T05:18:01.003Z,4.2
2023-03-27T05:19:00.964Z,4.2
2023-03-27T05:20:00.990Z,4.2
2023-03-27T05:21:00.962Z,4.2
2023-03-27T05:22:00.976Z,4.2
2023-03-27T05:23:00.984Z,4.2
2023-03-27T05:24:00.992Z,4.2
2023-03-27T05:25:00.998Z,4.2
2023-03-27T05:26:01.167Z,4.2
2023-03-27T05:27:00.988Z,4.2
2023-03-27T05:28:01.071Z,4.2
2023-03-27T05:29:00.973Z,4.2
2023-03-27T05:30:01.015Z,4.2
2023-03-27T05:31:01.144Z,4.2
2023-03-27T05:32:01.571Z,4.2
2023-03-27T05:33:01.060Z,4.1
2023-03-27T05:34:00.979Z,4.1
2023-03-27T05:35:00.991Z,4.1
2023-03-27T05:36:00.988Z,4.1
2023-03-27T05:37:00.982Z,4
2023-03-27T05:38:01.058Z,4
2023-03-27T05:39:01.009Z,4
2023-03-27T05:40:01.055Z,3.9
2023-03-27T05:41:01.019Z,3.9
2023-03-27T05:42:01.016Z,3.9
2023-03-27T05:43:01.013Z,3.9
2023-03-27T05:44:01.019Z,3.9
2023-03-27T05:45:01.007Z,3.8
2023-03-27T05:46:01.044Z,3.8
2023-03-27T05:47:01.008Z,3.8
2023-03-27T05:48:01.078Z,3.8
2023-03-27T05:49:01.015Z,3.8
2023-03-27T05:50:01.048Z,3.8
2023-03-27T05:51:01.036Z,3.8
2023-03-27T05:52:01.020Z,3.8
2023-03-27T05:53:01.001Z,3.7
2023-03-27T05:54:01.046Z,3.7
2023-03-27T05:55:01.079Z,3.6
2023-03-27T05:56:03.231Z,3.6
2023-03-27T05:57:01.048Z,3.6
2023-03-27T05:58:01.142Z,3.6
2023-03-27T05:59:01.029Z,3.6
2023-03-27T06:00:01.059Z,3.6
2023-03-27T06:01:01.059Z,3.5
2023-03-27T06:02:01.033Z,3.5
2023-03-27T06:03:01.152Z,3.5
2023-03-27T06:04:01.181Z,3.5
2023-03-27T06:05:01.050Z,3.5
2023-03-27T06:06:01.091Z,3.5
2023-03-27T06:07:01.054Z,3.4
2023-03-27T06:08:01.036Z,3.4
2023-03-27T06:09:01.048Z,3.4
2023-03-27T06:10:01.067Z,3.4
2023-03-27T06:11:01.042Z,3.4
2023-03-27T06:12:01.032Z,3.5
2023-03-27T06:13:01.041Z,3.5
2023-03-27T06:14:01.079Z,3.5
2023-03-27T06:15:01.044Z,3.5
2023-03-27T06:16:01.136Z,3.4
2023-03-27T06:17:01.022Z,3.4
2023-03-27T06:18:01.109Z,3.4
2023-03-27T06:19:01.027Z,3.3
2023-03-27T06:20:01.052Z,3.3
2023-03-27T06:21:01.076Z,3.2
2023-03-27T06:22:01.064Z,3.1
2023-03-27T06:23:01.026Z,3.1
2023-03-27T06:24:01.057Z,3
2023-03-27T06:25:01.060Z,2.9
2023-03-27T06:26:01.038Z,2.9
2023-03-27T06:27:01.055Z,2.9
2023-03-27T06:28:01.046Z,2.9
2023-03-27T06:29:01.057Z,2.9
2023-03-27T06:30:01.047Z,2.9
2023-03-27T06:31:01.070Z,2.9
2023-03-27T06:32:01.034Z,2.9
2023-03-27T06:33:01.071Z,2.9
2023-03-27T06:34:01.035Z,2.9
2023-03-27T06:35:01.060Z,2.9
2023-03-27T06:36:01.220Z,2.9
2023-03-27T06:37:01.041Z,2.9
2023-03-27T06:38:01.041Z,2.9
2023-03-27T06:39:00.408Z,2.9
2023-03-27T06:40:00.432Z,2.9
2023-03-27T06:41:00.382Z,2.9
2023-03-27T06:42:00.393Z,2.9
2023-03-27T06:43:00.396Z,2.9
2023-03-27T06:44:00.402Z,2.9
2023-03-27T06:45:00.421Z,2.8
2023-03-27T06:46:00.387Z,2.8
2023-03-27T06:47:00.435Z,2.8
2023-03-27T06:48:16.186Z,2.8
2023-03-27T06:49:00.391Z,2.7
2023-03-27T06:50:00.430Z,2.7
2023-03-27T06:51:00.412Z,2.8
2023-03-27T06:52:00.394Z,2.8
2023-03-27T06:53:00.804Z,2.9
2023-03-27T06:54:00.426Z,2.9
2023-03-27T06:55:00.414Z,2.9
2023-03-27T06:56:01.272Z,2.9
2023-03-27T06:57:00.439Z,2.9
2023-03-27T06:58:00.417Z,2.9
2023-03-27T06:59:00.421Z,2.9
2023-03-27T07:00:02.249Z,2.9
2023-03-27T07:01:00.558Z,2.9
2023-03-27T07:02:00.533Z,2.9
2023-03-27T07:03:00.553Z,2.9
2023-03-27T07:04:00.577Z,2.9
2023-03-27T07:05:04.761Z,2.9
2023-03-27T07:06:00.903Z,2.9
2023-03-27T07:07:00.614Z,3
2023-03-27T07:08:05.449Z,3
2023-03-27T07:09:00.582Z,3
2023-03-27T07:10:00.582Z,3
2023-03-27T07:11:11.762Z,3
2023-03-27T07:12:00.510Z,3
2023-03-27T07:13:00.440Z,3
2023-03-27T07:14:00.539Z,3
2023-03-27T07:15:00.474Z,3
2023-03-27T07:16:00.511Z,3.1
2023-03-27T07:17:00.597Z,3
2023-03-27T07:18:00.460Z,3
2023-03-27T07:19:02.354Z,3
2023-03-27T07:20:00.432Z,3.1
2023-03-27T07:21:00.795Z,3.1
2023-03-27T07:22:00.469Z,3.1
2023-03-27T07:23:00.430Z,3
2023-03-27T07:24:00.465Z,3
2023-03-27T07:25:00.427Z,3
2023-03-27T07:26:00.439Z,3
2023-03-27T07:27:00.431Z,2.9
2023-03-27T07:28:00.422Z,2.9
2023-03-27T07:29:00.754Z,2.9
2023-03-27T07:30:00.431Z,2.9
2023-03-27T07:31:00.436Z,2.9
2023-03-27T07:32:05.493Z,2.8
2023-03-27T07:33:00.518Z,2.8
2023-03-27T07:34:00.530Z,2.8
2023-03-27T07:35:00.424Z,2.8
2023-03-27T07:36:00.811Z,2.8
2023-03-27T07:37:00.467Z,2.8
2023-03-27T07:38:00.437Z,2.8
2023-03-27T07:39:00.464Z,2.8
2023-03-27T07:40:00.482Z,2.8
2023-03-27T07:41:00.451Z,2.8
2023-03-27T07:42:00.432Z,2.8
2023-03-27T07:43:00.459Z,2.8
2023-03-27T07:44:00.457Z,2.8
2023-03-27T07:45:02.805Z,2.8
2023-03-27T07:46:00.713Z,2.8
2023-03-27T07:47:00.452Z,2.9
2023-03-27T07:48:00.454Z,2.9
2023-03-27T07:49:00.439Z,2.9
2023-03-27T07:50:00.458Z,2.9
2023-03-27T07:51:07.302Z,2.9
2023-03-27T07:52:00.472Z,2.9
2023-03-27T07:53:00.466Z,2.9
2023-03-27T07:54:00.471Z,2.9
2023-03-27T07:55:00.472Z,2.9
2023-03-27T07:56:00.505Z,2.9
2023-03-27T07:57:00.556Z,2.8
2023-03-27T07:58:02.990Z,2.8
2023-03-27T07:59:00.465Z,2.8
2023-03-27T08:00:00.470Z,2.8
2023-03-27T08:01:00.480Z,2.8
2023-03-27T08:02:00.461Z,2.9
2023-03-27T08:03:00.643Z,2.9
2023-03-27T08:04:00.690Z,2.9
2023-03-27T08:05:00.569Z,2.9
2023-03-27T08:06:00.773Z,2.9
2023-03-27T08:07:00.481Z,3
2023-03-27T08:08:00.470Z,3.1
2023-03-27T08:09:02.721Z,3.1
2023-03-27T08:10:00.475Z,3.1
2023-03-27T08:11:00.480Z,3.2
2023-03-27T08:12:00.485Z,3.2
2023-03-27T08:13:00.463Z,3.3
2023-03-27T08:14:00.475Z,3.4
2023-03-27T08:15:00.499Z,3.4
2023-03-27T08:16:00.478Z,3.6
2023-03-27T08:17:14.489Z,3.8
2023-03-27T08:18:00.548Z,3.8
2023-03-27T08:19:00.479Z,3.9
2023-03-27T08:20:00.495Z,4.1
2023-03-27T08:21:00.483Z,4.2
2023-03-27T08:22:00.491Z,4.3
2023-03-27T08:23:00.467Z,4.4
2023-03-27T08:24:00.502Z,4.4
2023-03-27T08:25:00.471Z,4.4
2023-03-27T08:26:00.476Z,4.4
2023-03-27T08:27:00.488Z,4.3
2023-03-27T08:28:00.470Z,4.2
2023-03-27T08:29:00.515Z,4.2
2023-03-27T08:30:00.500Z,4.2
2023-03-27T08:31:02.879Z,4.1
2023-03-27T08:32:01.083Z,4.2
2023-03-27T08:33:00.575Z,4.2
2023-03-27T08:34:00.501Z,4.2
2023-03-27T08:35:00.484Z,4.2
2023-03-27T08:36:00.561Z,4.2
2023-03-27T08:37:00.513Z,4.2
2023-03-27T08:38:00.501Z,4.2
2023-03-27T08:39:00.507Z,4.3
2023-03-27T08:40:00.484Z,4.3
2023-03-27T08:41:00.504Z,4.3
2023-03-27T08:42:00.498Z,4.4
2023-03-27T08:43:00.534Z,4.3
2023-03-27T08:44:00.506Z,4.2
2023-03-27T08:45:00.543Z,4.3
2023-03-27T08:46:00.721Z,4.3
2023-03-27T08:47:00.513Z,4.3
2023-03-27T08:48:00.522Z,4.4
2023-03-27T08:49:00.509Z,4.4
2023-03-27T08:50:00.554Z,4.4
2023-03-27T08:51:00.514Z,4.4
2023-03-27T08:52:00.520Z,4.4
2023-03-27T08:53:00.519Z,4.4
2023-03-27T08:54:00.547Z,4.5
2023-03-27T08:55:00.519Z,4.5
2023-03-27T08:56:00.520Z,4.6
2023-03-27T08:57:00.514Z,4.6
2023-03-27T08:58:00.505Z,4.7
2023-03-27T08:59:00.527Z,4.8
2023-03-27T09:00:00.553Z,4.8
2023-03-27T09:01:00.527Z,4.9
2023-03-27T09:02:00.561Z,4.8
2023-03-27T09:03:00.621Z,4.8
2023-03-27T09:04:00.680Z,4.8
2023-03-27T09:05:00.512Z,4.8
2023-03-27T09:06:00.519Z,4.8
2023-03-27T09:07:00.532Z,4.8
2023-03-27T09:08:00.551Z,4.8
2023-03-27T09:09:00.536Z,4.8
2023-03-27T09:10:00.534Z,4.7
2023-03-27T09:11:00.556Z,4.7
2023-03-27T09:12:00.529Z,4.8
2023-03-27T09:13:00.527Z,4.8
2023-03-27T09:14:00.552Z,4.8
2023-03-27T09:15:00.546Z,4.7
2023-03-27T09:16:00.689Z,4.7
2023-03-27T09:17:00.524Z,4.7
2023-03-27T09:18:00.602Z,4.6
2023-03-27T09:19:00.574Z,4.6
2023-03-27T09:20:00.560Z,4.6
2023-03-27T09:21:00.543Z,4.6
2023-03-27T09:22:00.550Z,4.6
2023-03-27T09:23:00.552Z,4.6
2023-03-27T09:24:00.563Z,4.6
2023-03-27T09:25:00.547Z,4.6
2023-03-27T09:26:00.530Z,4.5
2023-03-27T09:27:07.226Z,4.4
2023-03-27T09:28:00.546Z,4.3
2023-03-27T09:29:00.565Z,4.2
2023-03-27T09:30:05.953Z,4.2
2023-03-27T09:31:00.596Z,4.2
2023-03-27T09:32:00.561Z,4.2
2023-03-27T09:33:00.561Z,4.2
2023-03-27T09:34:00.569Z,4.3
2023-03-27T09:35:00.552Z,4.4
2023-03-27T09:36:00.847Z,4.4
2023-03-27T09:37:00.546Z,4.4
2023-03-27T09:38:00.572Z,4.5
2023-03-27T09:39:00.572Z,4.4
2023-03-27T09:40:00.552Z,4.4
2023-03-27T09:41:00.575Z,4.4
2023-03-27T09:42:00.560Z,4.4
2023-03-27T09:43:00.585Z,4.4
2023-03-27T09:44:00.591Z,4.4
2023-03-27T09:45:00.560Z,4.5
2023-03-27T09:46:00.575Z,4.5
2023-03-27T09:47:00.610Z,4.6
2023-03-27T09:48:00.588Z,4.6
2023-03-27T09:49:00.576Z,4.7
2023-03-27T09:50:00.577Z,4.7
2023-03-27T09:51:00.560Z,4.8
2023-03-27T09:52:00.570Z,4.9
2023-03-27T09:53:00.580Z,4.9
2023-03-27T09:54:00.588Z,5
2023-03-27T09:55:00.574Z,5.1
2023-03-27T09:56:03.000Z,5.1
2023-03-27T09:57:00.620Z,5.2
2023-03-27T09:58:00.576Z,5.3
2023-03-27T09:59:00.600Z,5.4
2023-03-27T10:00:00.595Z,5.5
2023-03-27T10:01:00.659Z,5.6
2023-03-27T10:02:00.591Z,5.7
2023-03-27T10:03:00.642Z,5.6
2023-03-27T10:04:00.616Z,5.5
2023-03-27T10:05:00.583Z,5.4
2023-03-27T10:06:00.572Z,5.4
2023-03-27T10:07:00.593Z,5.3
2023-03-27T10:08:00.598Z,5.2
2023-03-27T10:09:00.607Z,5.2
2023-03-27T10:10:00.583Z,5.3
2023-03-27T10:11:00.588Z,5.4
2023-03-27T10:12:00.596Z,5.4
2023-03-27T10:13:00.625Z,5.5
2023-03-27T10:14:00.582Z,5.5
2023-03-27T10:15:01.695Z,5.5
2023-03-27T10:16:00.605Z,5.5
2023-03-27T10:17:00.704Z,5.5
2023-03-27T10:18:00.737Z,5.5
2023-03-27T10:19:00.608Z,5.4
2023-03-27T10:20:00.602Z,5.4
2023-03-27T10:21:00.593Z,5.2
2023-03-27T10:22:00.611Z,5.2
2023-03-27T10:23:00.691Z,5.1
2023-03-27T10:24:00.606Z,5.1
2023-03-27T10:25:00.593Z,4.9
2023-03-27T10:26:00.615Z,4.9
2023-03-27T10:27:00.598Z,4.8
2023-03-27T10:28:00.620Z,4.8
2023-03-27T10:29:00.603Z,4.8
2023-03-27T10:30:00.613Z,4.8
2023-03-27T10:31:00.627Z,4.8
2023-03-27T10:32:00.620Z,4.8
2023-03-27T10:33:00.642Z,4.8
2023-03-27T10:34:00.620Z,4.8
2023-03-27T10:35:00.617Z,4.9
2023-03-27T10:36:00.687Z,4.9
2023-03-27T10:37:00.619Z,4.9
2023-03-27T10:38:00.630Z,5
2023-03-27T10:39:00.618Z,5
2023-03-27T10:40:00.620Z,5
2023-03-27T10:41:00.642Z,5.1
2023-03-27T10:42:00.616Z,5.1
2023-03-27T10:43:00.632Z,5.2
2023-03-27T10:44:00.669Z,5.2
2023-03-27T10:45:00.623Z,5.4
2023-03-27T10:46:00.664Z,5.6
2023-03-27T10:47:00.694Z,5.6
2023-03-27T10:48:00.699Z,5.8
2023-03-27T10:49:00.691Z,5.9
2023-03-27T10:50:00.637Z,6.1
2023-03-27T10:51:00.629Z,6.2
2023-03-27T10:52:00.653Z,6.2
2023-03-27T10:53:00.680Z,6.4
2023-03-27T10:54:00.739Z,6.4
2023-03-27T10:55:00.641Z,6.3
2023-03-27T10:56:00.639Z,6.3
2023-03-27T10:57:00.656Z,6.4
2023-03-27T10:58:00.656Z,6.4
2023-03-27T10:59:00.649Z,6.5
2023-03-27T11:00:01.422Z,6.5
2023-03-27T11:01:00.810Z,6.6
2023-03-27T11:02:00.645Z,6.6
2023-03-27T11:03:00.671Z,6.5
2023-03-27T11:04:00.682Z,6.4
2023-03-27T11:05:00.635Z,6.4
2023-03-27T11:06:00.640Z,6.3
2023-03-27T11:07:00.651Z,6.2
2023-03-27T11:08:00.660Z,6.2
2023-03-27T11:09:00.653Z,6.2
2023-03-27T11:10:00.642Z,6.3
2023-03-27T11:11:00.646Z,6.3
2023-03-27T11:12:00.645Z,6.3
2023-03-27T11:13:00.670Z,6.4
2023-03-27T11:14:00.642Z,6.4
2023-03-27T11:15:00.648Z,6.5
2023-03-27T11:16:00.646Z,6.5
2023-03-27T11:17:00.697Z,6.5
2023-03-27T11:18:00.722Z,6.5
2023-03-27T11:19:00.645Z,6.5
2023-03-27T11:20:00.666Z,6.5
2023-03-27T11:21:00.649Z,6.6
2023-03-27T11:22:00.669Z,6.5
2023-03-27T11:23:00.682Z,6.5
2023-03-27T11:24:00.698Z,6.5
2023-03-27T11:25:00.653Z,6.6
2023-03-27T11:26:00.664Z,6.6
2023-03-27T11:27:00.660Z,6.6
2023-03-27T11:30:00.917Z,6.5
2023-03-27T11:31:12.155Z,6.4
2023-03-27T11:32:00.937Z,6.4
2023-03-27T11:33:00.940Z,6.4
2023-03-27T11:34:00.893Z,6.3
2023-03-27T11:35:03.927Z,6.2
2023-03-27T11:36:00.924Z,6.2
2023-03-27T11:37:00.910Z,6.1
2023-03-27T11:38:00.927Z,6.1
2023-03-27T11:39:00.917Z,5.9
2023-03-27T11:40:00.918Z,5.9
2023-03-27T11:41:00.924Z,5.9
2023-03-27T11:42:00.897Z,5.9
2023-03-27T11:43:00.902Z,5.9
2023-03-27T11:44:00.904Z,5.9
2023-03-27T11:45:00.935Z,5.9
2023-03-27T11:46:00.999Z,6.1
2023-03-27T11:47:00.913Z,6.1
2023-03-27T11:48:01.031Z,6.2
2023-03-27T11:49:00.924Z,6.2
2023-03-27T11:50:00.937Z,6.2
2023-03-27T11:51:00.909Z,6.3
2023-03-27T11:52:00.932Z,6.3
2023-03-27T11:53:00.931Z,6.3
2023-03-27T11:54:00.920Z,6.3
2023-03-27T11:55:00.936Z,6.3
2023-03-27T11:56:00.915Z,6.3
2023-03-27T11:57:00.951Z,6.4
2023-03-27T11:58:00.934Z,6.4
2023-03-27T11:59:00.934Z,6.4
2023-03-27T12:00:00.945Z,6.4
2023-03-27T12:01:00.929Z,6.4
2023-03-27T12:02:00.970Z,6.4
2023-03-27T12:03:00.982Z,6.4
2023-03-27T12:04:01.005Z,6.2
2023-03-27T12:05:00.952Z,6.1
2023-03-27T12:06:00.932Z,6.1
2023-03-27T12:07:04.818Z,6.1
2023-03-27T12:08:00.947Z,6
2023-03-27T12:09:00.947Z,5.9
2023-03-27T12:10:00.974Z,5.9
2023-03-27T12:11:00.938Z,5.9
2023-03-27T12:12:00.933Z,6
2023-03-27T12:13:00.957Z,6.1
2023-03-27T12:14:02.381Z,6.1
2023-03-27T12:15:00.976Z,6.3
2023-03-27T12:16:00.938Z,6.5
2023-03-27T12:17:00.956Z,6.7
2023-03-27T12:18:01.001Z,6.9
2023-03-27T12:19:08.090Z,7.1
2023-03-27T12:20:00.945Z,7.2
2023-03-27T12:21:01.158Z,7.3
2023-03-27T12:22:00.944Z,7.3
2023-03-27T12:23:00.966Z,7.3
2023-03-27T12:24:00.953Z,7.2
2023-03-27T12:25:00.967Z,7.2
2023-03-27T12:26:00.950Z,7.1
2023-03-27T12:27:00.978Z,7
2023-03-27T12:28:00.974Z,6.9
2023-03-27T12:29:00.966Z,6.9
2023-03-27T12:30:00.950Z,6.9
2023-03-27T12:31:00.967Z,6.9
2023-03-27T12:32:00.969Z,6.8
2023-03-27T12:33:01.058Z,6.7
2023-03-27T12:34:00.954Z,6.6
2023-03-27T12:35:00.979Z,6.6
2023-03-27T12:36:01.006Z,6.6
2023-03-27T12:37:00.960Z,6.5
2023-03-27T12:38:00.982Z,6.5
2023-03-27T12:39:00.924Z,6.5
2023-03-27T12:40:00.899Z,6.6
2023-03-27T12:41:00.883Z,6.6
2023-03-27T12:42:00.846Z,6.7
2023-03-27T12:43:00.830Z,6.9
2023-03-27T12:44:00.779Z,7.1
2023-03-27T12:45:00.755Z,7.2
2023-03-27T12:46:00.864Z,7.2
2023-03-27T12:47:00.719Z,7.3
2023-03-27T12:48:00.713Z,7.3
2023-03-27T12:49:00.631Z,7.4
2023-03-27T12:50:00.646Z,7.4
2023-03-27T12:51:01.069Z,7.4
2023-03-27T12:52:00.578Z,7.3
2023-03-27T12:53:00.557Z,7.2
2023-03-27T12:54:01.616Z,7.2
2023-03-27T12:55:00.541Z,7.2
2023-03-27T12:56:00.554Z,7.2
2023-03-27T12:57:00.679Z,7.2
2023-03-27T12:58:00.797Z,7.2
2023-03-27T12:59:00.546Z,7.2
2023-03-27T13:00:00.584Z,7.1
2023-03-27T13:01:01.155Z,7.1
2023-03-27T13:02:00.608Z,7.1
2023-03-27T13:03:00.747Z,7.1
2023-03-27T13:04:00.697Z,7
2023-03-27T13:05:00.569Z,7
2023-03-27T13:06:00.582Z,7
2023-03-27T13:07:00.568Z,6.9
2023-03-27T13:08:00.580Z,6.9
2023-03-27T13:09:00.556Z,6.9
2023-03-27T13:10:00.558Z,6.9
2023-03-27T13:11:00.603Z,6.9
2023-03-27T13:12:00.560Z,7
2023-03-27T13:13:00.600Z,7
2023-03-27T13:14:00.569Z,7
2023-03-27T13:15:00.578Z,6.9
2023-03-27T13:16:00.787Z,7
2023-03-27T13:17:00.585Z,7.1
2023-03-27T13:18:00.636Z,7.2
2023-03-27T13:19:00.568Z,7.4
2023-03-27T13:20:00.587Z,7.4
2023-03-27T13:21:00.567Z,7.5
2023-03-27T13:22:00.595Z,7.6
2023-03-27T13:23:00.599Z,7.7
2023-03-27T13:24:00.577Z,7.7
2023-03-27T13:25:00.572Z,7.6
2023-03-27T13:26:00.574Z,7.6
2023-03-27T13:27:00.621Z,7.6
2023-03-27T13:28:00.604Z,7.5
2023-03-27T13:29:00.580Z,7.5
2023-03-27T13:30:00.619Z,7.5
2023-03-27T13:31:00.626Z,7.6
2023-03-27T13:32:00.592Z,7.6
2023-03-27T13:33:00.614Z,7.6
2023-03-27T13:34:00.636Z,7.6
2023-03-27T13:35:00.590Z,7.6
2023-03-27T13:36:01.032Z,7.6
2023-03-27T13:37:06.345Z,7.5
2023-03-27T13:38:00.758Z,7.4
2023-03-27T13:39:00.596Z,7.4
2023-03-27T13:40:00.616Z,7.3
2023-03-27T13:41:00.608Z,7.2
2023-03-27T13:42:02.245Z,7.2
2023-03-27T13:43:00.613Z,7.2
2023-03-27T13:44:00.604Z,7.1
2023-03-27T13:45:00.619Z,7.1
2023-03-27T13:46:00.746Z,7.1
2023-03-27T13:47:00.668Z,7.1
2023-03-27T13:48:00.614Z,7.1
2023-03-27T13:49:00.601Z,7.1
2023-03-27T13:50:00.605Z,7.2